createdAt,value
2018-08-04T00:00:45.984Z,23.20
2018-08-04T00:03:13.461Z,23.10
2018-08-04T00:05:41.233Z,23.50
2018-08-04T00:08:08.796Z,23.30
2018-08-04T00:10:36.243Z,23.30
2018-08-04T00:13:03.722Z,23.20
2018-08-04T00:15:31.283Z,23.40
2018-08-04T00:17:58.753Z,23.50
2018-08-04T00:20:26.209Z,23.50
2018-08-04T00:22:53.782Z,23.30
2018-08-04T00:25:22.006Z,23.10
2018-08-04T00:27:49.507Z,23.10
2018-08-04T00:30:17.088Z,23.10
2018-08-04T00:32:44.545Z,23.00
2018-08-04T00:35:12.785Z,23.00
2018-08-04T00:37:40.242Z,23.00
2018-08-04T00:40:07.687Z,23.10
2018-08-04T00:42:35.218Z,23.10
2018-08-04T00:45:03.446Z,23.20
2018-08-04T00:47:30.909Z,23.20
2018-08-04T00:52:27.239Z,23.10
2018-08-04T00:54:54.676Z,23.20
2018-08-04T00:57:22.119Z,23.20
2018-08-04T00:59:49.582Z,23.20
2018-08-04T01:02:17.031Z,23.30
2018-08-04T01:04:44.500Z,23.30
2018-08-04T01:07:11.977Z,23.20
2018-08-04T01:09:39.545Z,23.10
2018-08-04T01:12:07.100Z,23.10
2018-08-04T01:14:34.560Z,23.00
2018-08-04T01:17:02.036Z,23.00
2018-08-04T01:19:29.491Z,22.90
2018-08-04T01:21:56.947Z,22.70
2018-08-04T01:24:24.412Z,22.90
2018-08-04T01:26:51.862Z,22.90
2018-08-04T01:29:19.328Z,22.80
2018-08-04T01:31:46.785Z,22.80
2018-08-04T01:34:14.246Z,22.80
2018-08-04T01:36:41.699Z,22.70
2018-08-04T01:39:09.166Z,22.60
2018-08-04T01:41:36.650Z,22.60
2018-08-04T01:44:04.107Z,22.60
2018-08-04T01:46:31.575Z,22.60
2018-08-04T01:48:59.052Z,22.60
2018-08-04T01:51:28.044Z,22.50
2018-08-04T01:53:57.009Z,22.40
2018-08-04T01:56:24.491Z,22.40
2018-08-04T01:58:52.119Z,22.40
2018-08-04T02:01:19.623Z,22.40
2018-08-04T02:03:47.196Z,22.40
2018-08-04T02:06:14.649Z,22.30
2018-08-04T02:08:43.235Z,22.30
2018-08-04T02:11:11.512Z,22.20
2018-08-04T02:13:39.078Z,22.20
2018-08-04T02:16:06.535Z,22.30
2018-08-04T02:18:34.001Z,22.30
2018-08-04T02:21:01.584Z,22.30
2018-08-04T02:23:29.037Z,22.30
2018-08-04T02:25:57.264Z,22.30
2018-08-04T02:28:24.766Z,22.40
2018-08-04T02:30:52.233Z,22.30
2018-08-04T02:33:19.692Z,22.20
2018-08-04T02:35:47.157Z,22.10
2018-08-04T02:38:14.611Z,22.10
2018-08-04T02:40:42.092Z,22.00
2018-08-04T02:43:09.643Z,22.00
2018-08-04T02:45:37.103Z,22.00
2018-08-04T02:48:04.569Z,21.90
2018-08-04T02:50:32.139Z,21.90
2018-08-04T02:52:59.589Z,22.00
2018-08-04T02:55:27.061Z,22.10
2018-08-04T02:57:54.530Z,22.00
2018-08-04T03:00:23.020Z,22.00
2018-08-04T03:02:50.579Z,21.90
2018-08-04T03:05:18.150Z,21.90
2018-08-04T03:07:46.380Z,21.80
2018-08-04T03:10:13.840Z,21.70
2018-08-04T03:12:41.301Z,21.70
2018-08-04T03:15:08.770Z,21.70
2018-08-04T03:17:36.271Z,21.60
2018-08-04T03:20:03.731Z,21.70
2018-08-04T03:22:31.289Z,21.50
2018-08-04T03:24:58.748Z,21.50
2018-08-04T03:27:26.312Z,21.60
2018-08-04T03:29:53.768Z,21.50
2018-08-04T03:32:22.100Z,21.40
2018-08-04T03:34:50.339Z,21.50
2018-08-04T03:37:17.910Z,21.50
2018-08-04T03:39:45.372Z,21.40
2018-08-04T03:42:12.820Z,21.30
2018-08-04T03:44:40.276Z,21.40
2018-08-04T03:47:07.739Z,21.40
2018-08-04T03:49:35.191Z,21.20
2018-08-04T03:52:02.651Z,21.00
2018-08-04T03:54:30.108Z,21.00
2018-08-04T03:56:57.567Z,21.10
2018-08-04T03:59:25.075Z,21.20
2018-08-04T04:01:52.639Z,21.20
2018-08-04T04:04:20.092Z,21.20
2018-08-04T04:06:47.555Z,21.10
2018-08-04T04:09:14.999Z,21.00
2018-08-04T04:11:42.476Z,21.10
2018-08-04T04:14:09.940Z,21.10
2018-08-04T04:16:37.401Z,21.10
2018-08-04T04:19:04.851Z,21.10
2018-08-04T04:21:32.303Z,21.30
2018-08-04T04:23:59.783Z,21.20
2018-08-04T04:26:27.238Z,21.20
2018-08-04T04:28:54.708Z,21.20
2018-08-04T04:31:22.340Z,21.30
2018-08-04T04:33:49.783Z,21.20
2018-08-04T04:36:18.003Z,21.20
2018-08-04T04:38:45.580Z,21.20
2018-08-04T04:41:13.068Z,21.20
2018-08-04T04:43:42.049Z,21.10
2018-08-04T04:46:09.507Z,21.10
2018-08-04T04:48:37.026Z,21.00
2018-08-04T04:51:04.536Z,20.90
2018-08-04T04:53:31.991Z,20.80
2018-08-04T04:58:09.908Z,21.70
2018-08-04T05:00:37.396Z,22.00
2018-08-04T05:03:04.964Z,21.80
2018-08-04T05:05:32.533Z,21.50
2018-08-04T05:08:00.089Z,21.40
2018-08-04T05:10:27.565Z,21.40
2018-08-04T05:12:55.015Z,21.40
2018-08-04T05:15:22.466Z,21.20
2018-08-04T05:17:49.915Z,21.30
2018-08-04T05:20:17.380Z,21.50
2018-08-04T05:22:44.842Z,21.40
2018-08-04T05:25:12.298Z,21.60
2018-08-04T05:27:39.761Z,21.60
2018-08-04T05:30:07.235Z,21.60
2018-08-04T05:32:34.699Z,21.50
2018-08-04T05:35:02.159Z,21.60
2018-08-04T05:37:29.655Z,21.60
2018-08-04T05:39:57.096Z,21.60
2018-08-04T05:42:24.660Z,21.70
2018-08-04T05:44:52.127Z,21.90
2018-08-04T05:47:19.688Z,21.90
2018-08-04T05:49:47.148Z,22.00
2018-08-04T05:52:14.622Z,22.10
2018-08-04T05:54:42.080Z,22.20
2018-08-04T05:57:09.536Z,22.20
2018-08-04T05:59:37.101Z,22.30
2018-08-04T06:02:05.696Z,22.40
2018-08-04T06:04:33.163Z,22.40
2018-08-04T06:07:00.711Z,22.50
2018-08-04T06:09:28.277Z,22.50
2018-08-04T06:11:55.732Z,22.70
2018-08-04T06:14:23.190Z,22.70
2018-08-04T06:16:50.727Z,22.80
2018-08-04T06:19:18.184Z,22.80
2018-08-04T06:21:45.635Z,22.90
2018-08-04T06:24:13.975Z,23.10
2018-08-04T06:26:41.430Z,23.10
2018-08-04T06:29:08.903Z,23.20
2018-08-04T06:31:36.356Z,23.30
2018-08-04T06:34:03.831Z,23.30
2018-08-04T06:36:32.059Z,23.40
2018-08-04T06:38:59.503Z,23.40
2018-08-04T06:41:27.742Z,23.50
2018-08-04T06:43:55.315Z,23.50
2018-08-04T06:46:24.283Z,23.70
2018-08-04T06:48:51.867Z,23.70
2018-08-04T06:51:19.493Z,23.60
2018-08-04T06:53:46.998Z,23.90
2018-08-04T06:56:14.459Z,23.90
2018-08-04T06:58:42.025Z,23.90
2018-08-04T07:01:09.484Z,24.00
2018-08-04T07:03:37.062Z,24.00
2018-08-04T07:06:04.616Z,24.20
2018-08-04T07:08:33.595Z,24.30
2018-08-04T07:11:01.076Z,24.30
2018-08-04T07:13:28.636Z,24.40
2018-08-04T07:15:56.199Z,24.50
2018-08-04T07:18:23.777Z,24.50
2018-08-04T07:20:51.239Z,24.60
2018-08-04T07:23:20.218Z,24.50
2018-08-04T07:25:47.794Z,24.50
2018-08-04T07:28:15.361Z,24.70
2018-08-04T07:30:42.811Z,24.70
2018-08-04T07:33:10.288Z,24.70
2018-08-04T07:35:37.842Z,24.70
2018-08-04T07:38:05.404Z,24.80
2018-08-04T07:40:34.010Z,24.80
2018-08-04T07:43:01.560Z,24.80
2018-08-04T07:45:29.123Z,24.90
2018-08-04T07:47:57.726Z,24.90
2018-08-04T07:50:25.182Z,24.90
2018-08-04T07:52:54.263Z,24.90
2018-08-04T07:55:21.719Z,24.90
2018-08-04T07:57:49.195Z,25.10
2018-08-04T08:00:16.760Z,25.00
2018-08-04T08:02:45.459Z,25.20
2018-08-04T08:05:12.924Z,25.20
2018-08-04T08:07:40.376Z,25.20
2018-08-04T08:10:07.951Z,25.30
2018-08-04T08:12:36.176Z,25.40
2018-08-04T08:15:03.644Z,25.40
2018-08-04T08:17:31.091Z,25.30
2018-08-04T08:19:58.609Z,25.40
2018-08-04T08:22:27.210Z,25.50
2018-08-04T08:24:54.774Z,25.50
2018-08-04T08:27:22.232Z,25.80
2018-08-04T08:29:50.505Z,25.80
2018-08-04T08:32:17.979Z,25.70
2018-08-04T08:34:45.446Z,25.80
2018-08-04T08:37:13.707Z,26.00
2018-08-04T08:39:41.171Z,26.00
2018-08-04T08:42:08.728Z,25.80
2018-08-04T08:44:36.207Z,25.70
2018-08-04T08:47:04.510Z,26.00
2018-08-04T08:49:32.036Z,26.00
2018-08-04T08:51:59.501Z,26.00
2018-08-04T08:54:27.072Z,26.00
2018-08-04T08:56:54.528Z,25.90
2018-08-04T08:59:21.981Z,25.90
2018-08-04T09:01:49.443Z,25.90
2018-08-04T09:04:16.914Z,25.90
2018-08-04T09:06:44.374Z,25.90
2018-08-04T09:09:11.823Z,25.90
2018-08-04T09:11:39.292Z,25.90
2018-08-04T09:14:06.773Z,26.00
2018-08-04T09:16:35.452Z,26.20
2018-08-04T09:19:02.921Z,26.20
2018-08-04T09:21:30.395Z,26.30
2018-08-04T09:23:59.356Z,26.30
2018-08-04T09:26:26.809Z,26.30
2018-08-04T09:28:54.300Z,26.30
2018-08-04T09:31:21.747Z,26.30
2018-08-04T09:33:49.229Z,26.10
2018-08-04T09:36:16.697Z,26.10
2018-08-04T09:38:44.159Z,26.20
2018-08-04T09:41:11.615Z,26.30
2018-08-04T09:43:40.612Z,26.30
2018-08-04T09:46:08.171Z,26.30
2018-08-04T09:48:35.647Z,26.20
2018-08-04T09:51:03.880Z,26.20
2018-08-04T09:53:31.646Z,26.20
2018-08-04T09:55:59.108Z,26.30
2018-08-04T09:58:26.572Z,26.20
2018-08-04T10:00:54.037Z,26.20
2018-08-04T10:03:21.496Z,26.10
2018-08-04T10:05:50.167Z,26.00
2018-08-04T10:08:18.511Z,26.20
2018-08-04T10:10:45.966Z,26.20
2018-08-04T10:13:13.427Z,26.30
2018-08-04T10:15:40.895Z,26.30
2018-08-04T10:18:09.542Z,26.40
2018-08-04T10:20:37.969Z,26.40
2018-08-04T10:23:06.243Z,26.40
2018-08-04T10:25:33.815Z,26.40
2018-08-04T10:28:01.292Z,26.30
2018-08-04T10:30:28.755Z,26.40
2018-08-04T10:32:56.309Z,26.40
2018-08-04T10:35:25.318Z,26.40
2018-08-04T10:37:52.776Z,26.40
2018-08-04T10:40:20.244Z,26.50
2018-08-04T10:42:47.789Z,26.50
2018-08-04T10:45:15.255Z,26.40
2018-08-04T10:47:42.724Z,26.40
2018-08-04T10:50:10.195Z,26.40
2018-08-04T10:52:38.456Z,26.60
2018-08-04T10:55:06.020Z,26.60
2018-08-04T10:57:34.711Z,26.80
2018-08-04T11:00:02.183Z,26.70
2018-08-04T11:02:29.736Z,26.70
2018-08-04T11:04:57.195Z,26.80
2018-08-04T11:07:24.654Z,26.90
2018-08-04T11:09:52.132Z,26.90
2018-08-04T11:12:20.723Z,27.00
2018-08-04T11:14:48.949Z,26.90
2018-08-04T11:17:17.167Z,27.00
2018-08-04T11:19:44.727Z,27.00
2018-08-04T11:22:12.300Z,27.00
2018-08-04T11:24:40.884Z,27.10
2018-08-04T11:27:08.354Z,27.10
2018-08-04T11:29:37.318Z,27.10
2018-08-04T11:32:04.775Z,27.10
2018-08-04T11:34:32.224Z,27.20
2018-08-04T11:36:59.692Z,27.40
2018-08-04T11:39:27.148Z,27.40
2018-08-04T11:41:54.925Z,27.50
2018-08-04T11:44:22.380Z,27.70
2018-08-04T11:46:49.848Z,27.60
2018-08-04T11:49:17.311Z,27.60
2018-08-04T11:51:44.767Z,27.50
2018-08-04T11:54:12.224Z,27.60
2018-08-04T11:56:40.305Z,27.60
2018-08-04T11:59:07.763Z,27.50
2018-08-04T12:01:35.215Z,27.60
2018-08-04T12:04:03.199Z,27.60
2018-08-04T12:06:30.658Z,27.80
2018-08-04T12:08:58.167Z,27.90
2018-08-04T12:11:25.909Z,27.90
2018-08-04T12:13:54.504Z,28.00
2018-08-04T12:16:21.955Z,28.00
2018-08-04T12:18:49.414Z,28.00
2018-08-04T12:21:16.862Z,28.00
2018-08-04T12:23:44.342Z,28.00
2018-08-04T12:26:11.844Z,28.10
2018-08-04T12:28:39.295Z,28.10
2018-08-04T12:31:06.757Z,28.10
2018-08-04T12:33:34.226Z,28.10
2018-08-04T12:38:55.166Z,28.30
2018-08-04T12:41:22.698Z,28.40
2018-08-04T12:43:50.199Z,28.40
2018-08-04T12:46:17.658Z,28.30
2018-08-04T12:48:45.129Z,27.80
2018-08-04T12:51:13.390Z,27.70
2018-08-04T12:53:40.843Z,27.70
2018-08-04T12:56:08.317Z,27.90
2018-08-04T12:58:35.865Z,27.60
2018-08-04T13:01:03.336Z,27.50
2018-08-04T13:03:30.801Z,27.70
2018-08-04T13:05:58.267Z,27.50
2018-08-04T13:08:25.736Z,27.50
2018-08-04T13:10:53.258Z,27.80
2018-08-04T13:13:20.720Z,28.10
2018-08-04T13:15:48.191Z,28.10
2018-08-04T13:18:15.655Z,28.10
2018-08-04T13:20:43.123Z,28.10
2018-08-04T13:23:10.572Z,28.30
2018-08-04T13:25:38.031Z,28.30
2018-08-04T13:28:05.507Z,28.20
2018-08-04T13:30:33.639Z,28.00
2018-08-04T13:33:01.097Z,28.00
2018-08-04T13:35:29.389Z,27.80
2018-08-04T13:37:56.903Z,28.20
2018-08-04T13:40:24.589Z,28.30
2018-08-04T13:42:52.189Z,28.00
2018-08-04T13:45:20.771Z,27.80
2018-08-04T13:47:48.233Z,27.80
2018-08-04T13:50:15.738Z,28.10
2018-08-04T13:52:43.177Z,28.30
2018-08-04T13:55:10.638Z,28.10
2018-08-04T13:57:38.123Z,28.00
2018-08-04T14:00:05.692Z,28.20
2018-08-04T14:02:33.251Z,28.20
2018-08-04T14:05:00.696Z,27.80
2018-08-04T14:07:28.235Z,27.90
2018-08-04T14:09:55.687Z,27.70
2018-08-04T14:12:23.936Z,27.70
2018-08-04T14:14:51.371Z,27.70
2018-08-04T14:17:18.843Z,27.70
2018-08-04T14:19:46.305Z,27.90
2018-08-04T14:22:13.746Z,27.90
2018-08-04T14:24:41.203Z,27.50
2018-08-04T14:27:08.655Z,27.40
2018-08-04T14:29:36.128Z,27.30
2018-08-04T14:32:03.613Z,27.40
2018-08-04T14:34:31.060Z,27.30
2018-08-04T14:36:58.538Z,27.20
2018-08-04T14:39:26.030Z,27.40
2018-08-04T14:41:53.459Z,27.70
2018-08-04T14:44:20.926Z,27.50
2018-08-04T14:46:48.487Z,27.30
2018-08-04T14:49:15.943Z,26.90
2018-08-04T14:51:43.424Z,27.20
2018-08-04T14:54:10.875Z,27.40
2018-08-04T14:56:38.349Z,27.60
2018-08-04T14:59:05.815Z,28.00
2018-08-04T15:01:33.289Z,27.20
2018-08-04T15:04:00.748Z,27.20
2018-08-04T15:06:28.202Z,27.20
2018-08-04T15:08:55.651Z,27.30
2018-08-04T15:11:23.215Z,27.30
2018-08-04T15:13:50.669Z,27.40
2018-08-04T15:16:18.125Z,27.20
2018-08-04T15:18:45.580Z,27.40
2018-08-04T15:21:13.042Z,27.20
2018-08-04T15:23:40.499Z,27.10
2018-08-04T15:26:07.968Z,27.10
2018-08-04T15:28:35.419Z,26.60
2018-08-04T15:31:02.890Z,27.00
2018-08-04T15:33:30.339Z,27.00
2018-08-04T15:35:57.898Z,26.90
2018-08-04T15:38:25.345Z,27.00
2018-08-04T15:40:53.578Z,26.80
2018-08-04T15:43:21.140Z,26.80
2018-08-04T15:45:48.711Z,27.00
2018-08-04T15:48:16.172Z,26.90
2018-08-04T15:50:43.731Z,26.80
2018-08-04T15:53:11.312Z,27.10
2018-08-04T15:55:38.795Z,27.10
2018-08-04T15:58:07.028Z,27.30
2018-08-04T16:00:34.487Z,27.30
2018-08-04T16:03:01.946Z,27.20
2018-08-04T16:05:29.407Z,27.60
2018-08-04T16:07:56.884Z,27.50
2018-08-04T16:10:24.621Z,27.10
2018-08-04T16:12:52.060Z,26.60
2018-08-04T16:15:20.289Z,26.80
2018-08-04T16:17:47.736Z,26.80
2018-08-04T16:20:15.220Z,26.60
2018-08-04T16:22:42.759Z,26.30
2018-08-04T16:25:10.235Z,26.10
2018-08-04T16:27:37.691Z,25.80
2018-08-04T16:30:05.179Z,26.00
2018-08-04T16:32:32.627Z,26.00
2018-08-04T16:35:00.104Z,26.30
2018-08-04T16:37:27.563Z,26.50
2018-08-04T16:39:55.228Z,26.40
2018-08-04T16:42:22.684Z,26.60
2018-08-04T16:44:50.150Z,26.50
2018-08-04T16:47:17.621Z,26.20
2018-08-04T16:49:45.063Z,26.30
2018-08-04T16:52:13.298Z,26.20
2018-08-04T16:54:41.523Z,26.10
2018-08-04T16:57:08.980Z,26.10
2018-08-04T16:59:36.524Z,26.40
2018-08-04T17:02:05.435Z,26.10
2018-08-04T17:04:32.890Z,26.20
2018-08-04T17:07:00.352Z,26.20
2018-08-04T17:09:27.876Z,26.40
2018-08-04T17:11:56.105Z,26.00
2018-08-04T17:14:23.567Z,26.00
2018-08-04T17:16:51.030Z,25.90
2018-08-04T17:19:18.496Z,25.80
2018-08-04T17:21:45.950Z,25.70
2018-08-04T17:24:13.411Z,25.20
2018-08-04T17:26:41.624Z,25.40
2018-08-04T17:29:09.094Z,25.40
2018-08-04T17:31:36.640Z,25.30
2018-08-04T17:34:04.094Z,25.40
2018-08-04T17:36:31.666Z,25.20
2018-08-04T17:38:59.135Z,25.80
2018-08-04T17:41:27.359Z,25.50
2018-08-04T17:43:54.883Z,25.40
2018-08-04T17:46:22.440Z,25.80
2018-08-04T17:48:49.908Z,25.70
2018-08-04T17:51:18.139Z,26.00
2018-08-04T17:53:45.593Z,25.90
2018-08-04T17:56:13.056Z,26.00
2018-08-04T17:58:40.534Z,26.30
2018-08-04T18:01:08.029Z,25.80
2018-08-04T18:03:35.591Z,25.40
2018-08-04T18:06:03.059Z,25.20
2018-08-04T18:08:30.510Z,25.20
2018-08-04T18:10:57.976Z,25.30
2018-08-04T18:13:25.532Z,25.20
2018-08-04T18:15:52.987Z,25.60
2018-08-04T18:18:20.447Z,25.70
2018-08-04T18:20:47.908Z,25.70
2018-08-04T18:23:15.390Z,25.80
2018-08-04T18:25:42.946Z,25.20
2018-08-04T18:28:10.412Z,25.60
2018-08-04T18:30:37.976Z,25.20
2018-08-04T18:33:05.540Z,25.40
2018-08-04T18:35:33.099Z,25.30
2018-08-04T18:38:00.673Z,25.40
2018-08-04T18:40:28.132Z,25.60
2018-08-04T18:42:55.594Z,25.60
2018-08-04T18:45:23.049Z,25.50
2018-08-04T18:47:51.749Z,25.40
2018-08-04T18:50:20.721Z,25.40
2018-08-04T18:52:48.198Z,25.40
2018-08-04T18:55:15.763Z,25.20
2018-08-04T18:57:43.231Z,25.10
2018-08-04T19:00:10.796Z,25.40
2018-08-04T19:02:38.355Z,25.50
2018-08-04T19:05:05.825Z,25.50
2018-08-04T19:07:33.375Z,25.70
2018-08-04T19:10:00.950Z,25.80
2018-08-04T19:12:28.414Z,25.80
2018-08-04T19:14:55.980Z,25.60
2018-08-04T19:17:23.459Z,25.50
2018-08-04T19:19:52.056Z,25.50
2018-08-04T19:22:20.287Z,25.30
2018-08-04T19:24:47.740Z,25.20
2018-08-04T19:27:15.232Z,25.00
2018-08-04T19:29:43.844Z,25.40
2018-08-04T19:32:12.819Z,24.90
2018-08-04T19:34:40.391Z,24.90
2018-08-04T19:37:07.841Z,24.90
2018-08-04T19:39:35.406Z,25.00
2018-08-04T19:42:02.860Z,25.30
2018-08-04T19:44:30.327Z,25.20
2018-08-04T19:46:57.895Z,25.10
2018-08-04T19:49:25.355Z,25.30
2018-08-04T19:51:52.833Z,25.00
2018-08-04T19:54:21.878Z,25.20
2018-08-04T19:56:49.337Z,23.70
2018-08-04T19:59:16.848Z,23.40
2018-08-04T20:01:45.121Z,22.00
2018-08-04T20:04:12.575Z,21.60
2018-08-04T20:06:40.057Z,21.40
2018-08-04T20:09:09.048Z,21.10
2018-08-04T20:11:36.608Z,21.20
2018-08-04T20:14:04.176Z,21.20
2018-08-04T20:16:31.643Z,21.30
2018-08-04T20:18:59.200Z,21.20
2018-08-04T20:21:26.670Z,21.40
2018-08-04T20:23:54.125Z,21.10
2018-08-04T20:26:21.688Z,21.20
2018-08-04T20:28:49.158Z,21.10
2018-08-04T20:31:16.616Z,21.20
2018-08-04T20:33:44.171Z,21.20
2018-08-04T20:36:11.660Z,21.20
2018-08-04T20:38:39.126Z,21.00
2018-08-04T20:41:06.682Z,21.00
2018-08-04T20:43:34.957Z,21.00
2018-08-04T20:46:03.221Z,20.90
2018-08-04T20:48:30.727Z,20.90
2018-08-04T20:50:58.955Z,21.00
2018-08-04T20:53:26.423Z,21.00
2018-08-04T20:55:53.905Z,21.00
2018-08-04T20:58:22.135Z,21.10
2018-08-04T21:00:49.643Z,21.00
2018-08-04T21:03:17.107Z,21.10
2018-08-04T21:05:44.666Z,21.10
2018-08-04T21:08:12.217Z,21.00
2018-08-04T21:10:39.679Z,21.10
2018-08-04T21:13:07.257Z,21.10
2018-08-04T21:15:34.823Z,21.10
2018-08-04T21:18:02.929Z,20.90
2018-08-04T21:20:31.156Z,21.00
2018-08-04T21:22:58.639Z,21.00
2018-08-04T21:25:26.204Z,21.00
2018-08-04T21:27:53.664Z,21.20
2018-08-04T21:30:21.244Z,21.20
2018-08-04T21:32:48.813Z,21.10
2018-08-04T21:35:17.088Z,21.20
2018-08-04T21:37:44.541Z,21.20
2018-08-04T21:40:12.094Z,21.20
2018-08-04T21:42:39.654Z,21.10
2018-08-04T21:45:07.222Z,21.00
2018-08-04T21:47:34.689Z,21.10
2018-08-04T21:50:02.252Z,21.10
2018-08-04T21:52:29.712Z,20.90
2018-08-04T21:54:57.184Z,20.80
2018-08-04T21:57:24.639Z,21.00
2018-08-04T21:59:52.099Z,20.90
2018-08-04T22:02:19.661Z,20.90
2018-08-04T22:04:47.122Z,20.90
2018-08-04T22:07:14.689Z,20.80
2018-08-04T22:09:42.155Z,20.70
2018-08-04T22:12:09.621Z,20.60
2018-08-04T22:14:37.183Z,20.60
2018-08-04T22:17:04.650Z,20.70
2018-08-04T22:19:32.133Z,20.80
2018-08-04T22:21:59.588Z,20.90
2018-08-04T22:24:27.131Z,20.80
2018-08-04T22:26:54.700Z,20.80
2018-08-04T22:29:22.262Z,20.80
2018-08-04T22:31:49.716Z,20.70
2018-08-04T22:34:17.284Z,20.70
2018-08-04T22:36:44.742Z,20.70
2018-08-04T22:39:12.200Z,20.80
2018-08-04T22:41:39.650Z,20.70
2018-08-04T22:44:07.119Z,20.70
2018-08-04T22:46:34.573Z,20.60
2018-08-04T22:49:02.066Z,20.60
2018-08-04T22:51:29.511Z,20.70
2018-08-04T22:53:56.968Z,20.70
2018-08-04T22:56:24.423Z,20.60
2018-08-04T22:58:51.905Z,20.50
2018-08-04T23:01:19.350Z,20.30
2018-08-04T23:06:14.290Z,20.40
2018-08-04T23:08:41.857Z,20.40
2018-08-04T23:11:09.314Z,20.30
2018-08-04T23:13:36.760Z,20.30
2018-08-04T23:16:04.238Z,20.30
2018-08-04T23:18:31.711Z,20.40
2018-08-04T23:20:59.169Z,20.40
2018-08-04T23:23:26.730Z,20.30
2018-08-04T23:25:54.300Z,20.40
2018-08-04T23:28:21.854Z,20.30
2018-08-04T23:30:49.419Z,20.30
2018-08-04T23:33:16.987Z,20.50
2018-08-04T23:35:44.554Z,20.50
2018-08-04T23:38:12.023Z,20.30
2018-08-04T23:40:39.480Z,20.40
2018-08-04T23:43:06.941Z,20.40
2018-08-04T23:45:34.499Z,20.30
2018-08-04T23:48:01.938Z,20.30
2018-08-04T23:50:29.399Z,20.00
2018-08-04T23:52:56.867Z,20.30
2018-08-04T23:55:24.334Z,20.20
2018-08-04T23:57:51.811Z,20.10
